Indiana, PA

3:12 PM EST on January 20, 2017 (GMT -0500)
Indiana County-Stewart

Weather History for KIDI - April, 2014

Change the Weather History Date:

Thursday, April 24, 2014

  Actual Average Record
Temperature  
Mean Temperature 40 °F -  
Max Temperature 57 °F 63 °F 87 °F (1960)
Min Temperature 24 °F 40 °F 24 °F (1986)
Degree Days  
Heating Degree Days 24    
Moisture  
Dew Point 21 °F    
Average Humidity 49    
Maximum Humidity 86    
Minimum Humidity 21    
Precipitation  
Precipitation 0.00 in - - ()
Sea Level Pressure  
Sea Level Pressure 30.07 in    
Wind  
Wind Speed 2 mph (North)    
Max Wind Speed 8 mph    
Max Gust Speed -    
Visibility 10 miles    
Events      
Averages and records for this station are not official NWS values.
T = Trace of Precipitation, MM = Missing Value Source: NWS Daily Summary

Daily Weather History Graph

Daily Weather History Graph

Search for Another Location

Airport or City:

Trip Planner

Search our weather history database for the weather conditions in past years. The results will help you decide how hot, cold, wet, or windy it might be!

Date:

Astronomy

Apr. 24, 2014 Rise Set
Actual Time 6:24 AM EDT 8:05 PM EDT
Civil Twilight 5:55 AM EDT 8:34 PM EDT
Nautical Twilight 5:20 AM EDT 9:09 PM EDT
Astronomical Twilight 4:43 AM EDT 9:47 PM EDT
Moon 3:36 AM EDT (4/24) 3:17 PM EDT (4/24)
Length of Visible Light 14h 38m
Length of Day
13h 40m
Waning Crescent, 24% of the Moon is Illuminated
Apr 24
Waning Crescent
Apr 29
New
May 6
First Quarter
May 14
Full
May 21
Last Quarter

Hourly Weather History & Observations

Time (EDT) Temp. Windchill Dew Point Humidity Pressure Visibility Wind Dir Wind Speed Gust Speed Precip Events Conditions
12:15 AM 35.6 °F 31.7 °F 17.6 °F 48% 30.08 in 10.0 mi WNW 4.6 mph - N/A   Clear
12:35 AM 35.6 °F 31.7 °F 19.4 °F 52% 30.08 in 10.0 mi WNW 4.6 mph - N/A   Clear
12:55 AM 35.6 °F 31.7 °F 17.6 °F 48% 30.08 in 10.0 mi NW 4.6 mph - N/A   Clear
1:15 AM 33.8 °F - 17.6 °F 52% 30.08 in 10.0 mi Calm Calm - N/A   Clear
1:35 AM 33.8 °F - 17.6 °F 52% 30.08 in 10.0 mi Calm Calm - N/A   Clear
1:55 AM 33.8 °F - 17.6 °F 52% 30.08 in 10.0 mi Calm Calm - N/A   Clear
2:15 AM 32.0 °F - 19.4 °F 60% 30.08 in 10.0 mi Calm Calm - N/A   Clear
2:35 AM 28.4 °F - 23.0 °F 80% 30.07 in 10.0 mi Calm Calm - N/A   Clear
2:55 AM 28.4 °F - 23.0 °F 80% 30.07 in 10.0 mi Calm Calm - N/A   Clear
3:15 AM 28.4 °F - 21.2 °F 74% 30.07 in 10.0 mi Calm Calm - N/A   Clear
3:35 AM 26.6 °F - 23.0 °F 86% 30.06 in 10.0 mi Calm Calm - N/A   Clear
3:55 AM 28.4 °F - 21.2 °F 74% 30.07 in 10.0 mi Calm Calm - N/A   Clear
4:15 AM 26.6 °F - 21.2 °F 80% 30.06 in 10.0 mi Calm Calm - N/A   Clear
4:35 AM 26.6 °F - 21.2 °F 80% 30.07 in 10.0 mi Calm Calm - N/A   Clear
4:55 AM 26.6 °F - 23.0 °F 86% 30.08 in 10.0 mi Calm Calm - N/A   Clear
5:15 AM 26.6 °F - 21.2 °F 80% 30.09 in 10.0 mi Calm Calm - N/A   Clear
5:35 AM 26.6 °F - 23.0 °F 86% 30.10 in 10.0 mi Calm Calm - N/A   Clear
5:55 AM 26.6 °F - 21.2 °F 80% 30.10 in 10.0 mi Calm Calm - N/A   Clear
6:15 AM 24.8 °F - 21.2 °F 86% 30.11 in 10.0 mi Calm Calm - N/A   Clear
6:35 AM 24.8 °F - 21.2 °F 86% 30.11 in 10.0 mi Calm Calm - N/A   Clear
6:55 AM 26.6 °F - 21.2 °F 80% 30.12 in 10.0 mi Calm Calm - N/A   Clear
7:15 AM 26.6 °F - 21.2 °F 80% 30.13 in 10.0 mi Calm Calm - N/A   Clear
7:35 AM 28.4 °F - 21.2 °F 74% 30.14 in 10.0 mi Calm Calm - N/A   Clear
7:55 AM 30.2 °F 25.4 °F 23.0 °F 75% 30.15 in 10.0 mi WSW 4.6 mph - N/A   Clear
8:15 AM 33.8 °F 29.6 °F 21.2 °F 60% 30.16 in 10.0 mi SW 4.6 mph - N/A   Clear
8:35 AM 33.8 °F 29.6 °F 23.0 °F 65% 30.17 in 10.0 mi SW 4.6 mph - N/A   Clear
8:55 AM 35.6 °F - 23.0 °F 60% 30.16 in 10.0 mi Calm Calm - N/A   Clear
9:15 AM 37.4 °F - 24.8 °F 60% 30.16 in 10.0 mi Calm Calm - N/A   Clear
9:35 AM 37.4 °F - 23.0 °F 56% 30.16 in 10.0 mi Calm Calm - N/A   Clear
9:55 AM 39.2 °F - 23.0 °F 52% 30.17 in 10.0 mi Calm Calm - N/A   Clear
10:15 AM 41.0 °F - 24.8 °F 53% 30.17 in 10.0 mi Calm Calm - N/A   Clear
10:35 AM 42.8 °F - 17.6 °F 36% 30.17 in 10.0 mi Calm Calm - N/A   Clear
10:55 AM 44.6 °F 42.2 °F 17.6 °F 34% 30.16 in 10.0 mi NNW 4.6 mph - N/A   Clear
11:15 AM 44.6 °F 41.4 °F 19.4 °F 37% 30.15 in 10.0 mi WNW 5.8 mph - N/A   Clear
11:35 AM 46.4 °F 42.9 °F 19.4 °F 34% 30.15 in 10.0 mi NNW 6.9 mph - N/A   Clear
11:55 AM 46.4 °F - 19.4 °F 34% 30.14 in 10.0 mi Calm Calm - N/A   Clear
12:15 PM 48.2 °F - 21.2 °F 34% 30.14 in 10.0 mi NW 6.9 mph - N/A   Clear
12:35 PM 48.2 °F - 19.4 °F 32% 30.13 in 10.0 mi NNE 5.8 mph - N/A   Clear
12:55 PM 48.2 °F - 19.4 °F 32% 30.11 in 10.0 mi Calm Calm - N/A   Clear
1:15 PM 50.0 °F - 21.2 °F 32% 30.10 in 10.0 mi Calm Calm - N/A   Clear
1:35 PM 51.8 °F - 19.4 °F 28% 30.10 in 10.0 mi North 3.5 mph - N/A   Clear
1:55 PM 51.8 °F - 19.4 °F 28% 30.09 in 10.0 mi Calm Calm - N/A   Clear
2:15 PM 53.6 °F - 21.2 °F 28% 30.08 in 10.0 mi North 5.8 mph - N/A   Clear
2:35 PM 53.6 °F - 17.6 °F 24% 30.07 in 10.0 mi NE 3.5 mph - N/A   Clear
2:55 PM 53.6 °F - 21.2 °F 28% 30.06 in 10.0 mi NW 8.1 mph - N/A   Clear
3:15 PM 55.4 °F - 19.4 °F 25% 30.05 in 10.0 mi NNE 4.6 mph - N/A   Clear
3:35 PM 55.4 °F - 19.4 °F 25% 30.05 in 10.0 mi North 4.6 mph - N/A   Clear
3:55 PM 57.2 °F - 21.2 °F 25% 30.04 in 10.0 mi NNE 4.6 mph - N/A   Clear
4:15 PM 57.2 °F - 17.6 °F 21% 30.03 in 10.0 mi NNE 3.5 mph - N/A   Clear
4:35 PM 57.2 °F - 19.4 °F 23% 30.03 in 10.0 mi Calm Calm - N/A   Clear
4:55 PM 57.2 °F - 17.6 °F 21% 30.02 in 10.0 mi Calm Calm - N/A   Clear
5:15 PM 57.2 °F - 17.6 °F 21% 30.02 in 10.0 mi ENE 3.5 mph - N/A   Clear
5:35 PM 57.2 °F - 17.6 °F 21% 30.02 in 10.0 mi ENE 5.8 mph - N/A   Clear
5:55 PM 57.2 °F - 17.6 °F 21% 30.02 in 10.0 mi Calm Calm - N/A   Clear
6:15 PM 57.2 °F - 17.6 °F 21% 30.02 in 10.0 mi Calm Calm - N/A   Clear
6:35 PM 55.4 °F - 15.8 °F 21% 30.01 in 10.0 mi NNE 3.5 mph - N/A   Clear
6:55 PM 55.4 °F - 17.6 °F 23% 30.02 in 10.0 mi Calm Calm - N/A   Clear
7:15 PM 55.4 °F - 15.8 °F 21% 30.01 in 10.0 mi Calm Calm - N/A   Clear
7:35 PM 55.4 °F - 17.6 °F 23% 30.01 in 10.0 mi Calm Calm - N/A   Clear
7:55 PM 55.4 °F - 17.6 °F 23% 30.01 in 10.0 mi Calm Calm - N/A   Clear
8:15 PM 53.6 °F - 24.8 °F 33% 30.01 in 10.0 mi Calm Calm - N/A   Clear
8:35 PM 51.8 °F - 26.6 °F 38% 30.01 in 10.0 mi Calm Calm - N/A   Clear
8:55 PM 48.2 °F - 24.8 °F 40% 30.01 in 10.0 mi Calm Calm - N/A   Clear
9:15 PM 46.4 °F - 26.6 °F 46% 30.01 in 10.0 mi Calm Calm - N/A   Clear
9:35 PM 46.4 °F - 26.6 °F 46% 30.01 in 10.0 mi Calm Calm - N/A   Clear
9:55 PM 42.8 °F 41.1 °F 28.4 °F 57% 30.01 in 10.0 mi East 3.5 mph - N/A   Clear
10:15 PM 44.6 °F 42.2 °F 26.6 °F 49% 30.00 in 10.0 mi East 4.6 mph - N/A   Clear
10:35 PM 41.0 °F 39.0 °F 28.4 °F 61% 29.99 in 10.0 mi East 3.5 mph - N/A   Clear
10:55 PM 42.8 °F 41.1 °F 24.8 °F 49% 29.99 in 10.0 mi ENE 3.5 mph - N/A   Clear
11:15 PM 41.0 °F - 26.6 °F 57% 29.98 in 10.0 mi Calm Calm - N/A   Clear
11:35 PM 39.2 °F - 26.6 °F 61% 29.98 in 10.0 mi Calm Calm - N/A   Clear
11:55 PM 41.0 °F - 26.6 °F 57% 29.97 in 10.0 mi Calm Calm - N/A   Scattered Clouds